createdAt,value
2023-05-13T00:00:44.497Z,8.50
2023-05-13T00:01:44.497Z,8.10
2023-05-13T00:02:44.514Z,9.50
2023-05-13T00:03:44.592Z,10.00
2023-05-13T00:04:44.489Z,9.90
2023-05-13T00:05:44.556Z,9.80
2023-05-13T00:06:44.489Z,10.50
2023-05-13T00:07:44.484Z,10.60
2023-05-13T00:08:44.500Z,10.70
2023-05-13T00:09:44.489Z,10.60
2023-05-13T00:10:44.491Z,10.60
2023-05-13T00:11:44.472Z,11.10
2023-05-13T00:12:44.471Z,12.00
2023-05-13T00:13:44.469Z,13.60
2023-05-13T00:14:44.466Z,14.00
2023-05-13T00:15:44.463Z,13.60
2023-05-13T00:16:44.560Z,13.70
2023-05-13T00:17:44.482Z,13.80
2023-05-13T00:18:44.487Z,14.20
2023-05-13T00:19:44.454Z,14.10
2023-05-13T00:20:44.450Z,14.40
2023-05-13T00:21:44.449Z,13.80
2023-05-13T00:22:44.443Z,14.10
2023-05-13T00:23:44.456Z,13.70
2023-05-13T00:24:44.445Z,9.70
2023-05-13T00:25:44.844Z,9.30
2023-05-13T00:26:44.450Z,10.40
2023-05-13T00:27:44.440Z,11.00
2023-05-13T00:28:44.430Z,11.00
2023-05-13T00:29:44.434Z,12.80
2023-05-13T00:30:44.431Z,12.10
2023-05-13T00:31:44.487Z,13.20
2023-05-13T00:32:44.448Z,12.50
2023-05-13T00:33:44.421Z,11.90
2023-05-13T00:34:44.416Z,12.30
2023-05-13T00:35:44.417Z,12.90
2023-05-13T00:36:44.420Z,12.90
2023-05-13T00:37:44.412Z,13.50
2023-05-13T00:38:44.407Z,15.50
2023-05-13T00:39:44.403Z,14.60
2023-05-13T00:40:44.403Z,15.80
2023-05-13T00:41:44.399Z,14.50
2023-05-13T00:42:44.478Z,16.90
2023-05-13T00:43:44.398Z,16.30
2023-05-13T00:44:44.392Z,17.70
2023-05-13T00:45:44.432Z,16.80
2023-05-13T00:46:44.399Z,16.50
2023-05-13T00:47:44.419Z,15.60
2023-05-13T00:48:44.393Z,16.50
2023-05-13T00:49:44.381Z,17.30
2023-05-13T00:50:44.377Z,17.20
2023-05-13T00:51:44.387Z,15.30
2023-05-13T00:52:44.371Z,15.20
2023-05-13T00:53:44.386Z,15.10
2023-05-13T00:54:44.376Z,15.70
2023-05-13T00:55:44.369Z,15.10
2023-05-13T00:56:44.365Z,15.40
2023-05-13T00:57:44.380Z,15.00
2023-05-13T00:58:44.388Z,15.50
2023-05-13T00:59:44.364Z,14.10
2023-05-13T01:00:44.353Z,15.30
2023-05-13T01:01:44.391Z,14.50
2023-05-13T01:02:44.422Z,14.40
2023-05-13T01:03:44.350Z,14.80
2023-05-13T01:04:44.359Z,14.90
2023-05-13T01:05:44.341Z,14.40
2023-05-13T01:06:44.337Z,14.20
2023-05-13T01:07:44.342Z,13.10
2023-05-13T01:08:44.332Z,13.40
2023-05-13T01:09:44.331Z,13.40
2023-05-13T01:10:44.331Z,13.90
2023-05-13T01:11:44.347Z,12.90
2023-05-13T01:12:44.321Z,12.40
2023-05-13T01:13:44.321Z,12.30
2023-05-13T01:14:44.345Z,12.40
2023-05-13T01:15:44.319Z,12.10
2023-05-13T01:16:44.437Z,12.70
2023-05-13T01:17:44.389Z,11.70
2023-05-13T01:18:44.342Z,11.70
2023-05-13T01:19:44.316Z,12.80
2023-05-13T01:20:44.304Z,13.30
2023-05-13T01:21:44.306Z,13.10
2023-05-13T01:22:44.302Z,13.40
2023-05-13T01:23:44.301Z,12.60
2023-05-13T01:24:44.346Z,12.80
2023-05-13T01:25:44.646Z,14.40
2023-05-13T01:26:44.291Z,13.90
2023-05-13T01:27:44.297Z,16.10
2023-05-13T01:28:44.286Z,15.60
2023-05-13T01:29:44.283Z,16.40
2023-05-13T01:30:44.302Z,14.50
2023-05-13T01:31:44.312Z,14.10
2023-05-13T01:32:44.290Z,13.80
2023-05-13T01:33:44.291Z,14.30
2023-05-13T01:34:44.270Z,13.30
2023-05-13T01:35:44.272Z,13.60
2023-05-13T01:36:44.270Z,13.20
2023-05-13T01:37:44.274Z,12.50
2023-05-13T01:38:44.257Z,13.90
2023-05-13T01:39:44.260Z,13.40
2023-05-13T01:40:44.258Z,13.50
2023-05-13T01:41:44.253Z,13.60
2023-05-13T01:42:44.254Z,13.50
2023-05-13T01:43:44.249Z,13.90
2023-05-13T01:44:44.246Z,13.80
2023-05-13T01:45:44.252Z,13.30
2023-05-13T01:46:44.309Z,13.40
2023-05-13T01:47:44.281Z,13.70
2023-05-13T01:48:44.246Z,13.30
2023-05-13T01:49:44.237Z,13.40
2023-05-13T01:50:44.233Z,12.70
2023-05-13T01:51:44.230Z,13.70
2023-05-13T01:52:44.230Z,14.70
2023-05-13T01:53:44.240Z,14.60
2023-05-13T01:54:44.225Z,14.00
2023-05-13T01:55:44.232Z,14.20
2023-05-13T01:56:44.227Z,13.70
2023-05-13T01:57:44.220Z,15.10
2023-05-13T01:58:44.233Z,15.60
2023-05-13T01:59:44.219Z,16.10
2023-05-13T02:00:44.212Z,15.80
2023-05-13T02:01:44.217Z,15.70
2023-05-13T02:02:44.306Z,15.00
2023-05-13T02:03:44.250Z,16.00
2023-05-13T02:04:44.195Z,15.50
2023-05-13T02:05:44.203Z,15.60
2023-05-13T02:06:44.194Z,17.00
2023-05-13T02:07:44.200Z,15.70
2023-05-13T02:08:44.191Z,14.70
2023-05-13T02:09:44.200Z,14.80
2023-05-13T02:10:44.184Z,16.20
2023-05-13T02:11:44.186Z,15.40
2023-05-13T02:12:44.179Z,15.60
2023-05-13T02:13:44.287Z,16.50
2023-05-13T02:14:44.176Z,15.90
2023-05-13T02:15:44.176Z,15.30
2023-05-13T02:16:44.212Z,16.00
2023-05-13T02:17:44.202Z,17.00
2023-05-13T02:18:44.208Z,16.20
2023-05-13T02:19:44.177Z,16.10
2023-05-13T02:20:44.171Z,17.00
2023-05-13T02:21:44.177Z,15.60
2023-05-13T02:22:44.163Z,17.20
2023-05-13T02:23:44.173Z,17.20
2023-05-13T02:24:44.153Z,17.30
2023-05-13T02:25:44.512Z,18.20
2023-05-13T02:26:44.160Z,17.70
2023-05-13T02:27:44.156Z,18.90
2023-05-13T02:28:44.147Z,18.70
2023-05-13T02:29:44.146Z,18.40
2023-05-13T02:30:44.142Z,17.60
2023-05-13T02:31:44.166Z,18.50
2023-05-13T02:32:44.271Z,18.50
2023-05-13T02:33:44.139Z,17.60
2023-05-13T02:34:44.158Z,17.60
2023-05-13T02:35:44.138Z,18.00
2023-05-13T02:36:44.126Z,17.70
2023-05-13T02:37:44.129Z,18.20
2023-05-13T02:38:44.129Z,18.40
2023-05-13T02:39:44.122Z,19.10
2023-05-13T02:40:44.125Z,18.40
2023-05-13T02:41:44.117Z,19.30
2023-05-13T02:42:44.121Z,18.70
2023-05-13T02:43:44.115Z,19.00
2023-05-13T02:44:44.123Z,18.70
2023-05-13T02:45:44.128Z,18.30
2023-05-13T02:46:44.113Z,18.00
2023-05-13T02:47:44.142Z,19.00
2023-05-13T02:48:44.120Z,18.90
2023-05-13T02:49:44.108Z,18.30
2023-05-13T02:50:44.125Z,20.10
2023-05-13T02:51:44.106Z,18.00
2023-05-13T02:52:44.090Z,18.60
2023-05-13T02:53:44.090Z,19.30
2023-05-13T02:54:44.101Z,18.40
2023-05-13T02:55:44.291Z,18.00
2023-05-13T02:56:44.084Z,17.80
2023-05-13T02:57:44.082Z,18.20
2023-05-13T02:58:44.081Z,18.80
2023-05-13T02:59:44.091Z,19.40
2023-05-13T03:00:44.074Z,18.50
2023-05-13T03:01:44.135Z,18.10
2023-05-13T03:02:44.135Z,17.90
2023-05-13T03:03:44.132Z,18.20
2023-05-13T03:04:44.074Z,18.60
2023-05-13T03:05:44.089Z,18.20
2023-05-13T03:06:44.088Z,18.70
2023-05-13T03:07:44.079Z,18.00
2023-05-13T03:08:44.059Z,17.80
2023-05-13T03:09:44.061Z,17.50
2023-05-13T03:10:44.060Z,17.90
2023-05-13T03:11:44.054Z,17.80
2023-05-13T03:12:44.051Z,16.70
2023-05-13T03:13:44.058Z,16.60
2023-05-13T03:14:44.044Z,16.80
2023-05-13T03:15:44.696Z,16.60
2023-05-13T03:16:44.041Z,16.70
2023-05-13T03:17:44.068Z,16.30
2023-05-13T03:18:44.050Z,16.60
2023-05-13T03:19:44.037Z,16.30
2023-05-13T03:20:44.030Z,16.50
2023-05-13T03:21:44.028Z,15.80
2023-05-13T03:22:44.048Z,17.30
2023-05-13T03:23:44.034Z,15.40
2023-05-13T03:24:44.022Z,14.90
2023-05-13T03:25:44.029Z,16.20
2023-05-13T03:26:44.015Z,14.80
2023-05-13T03:27:44.024Z,15.10
2023-05-13T03:28:44.008Z,15.10
2023-05-13T03:29:44.009Z,16.00
2023-05-13T03:30:44.021Z,15.50
2023-05-13T03:31:44.045Z,15.20
2023-05-13T03:32:44.068Z,15.30
2023-05-13T03:33:44.004Z,15.60
2023-05-13T03:34:44.013Z,16.80
2023-05-13T03:35:44.006Z,16.10
2023-05-13T03:36:44.001Z,15.60
2023-05-13T03:37:43.997Z,16.30
2023-05-13T03:38:44.027Z,16.00
2023-05-13T03:39:44.003Z,16.70
2023-05-13T03:40:43.987Z,16.70
2023-05-13T03:41:43.990Z,16.50
2023-05-13T03:42:43.980Z,16.20
2023-05-13T03:43:43.980Z,15.50
2023-05-13T03:44:43.977Z,16.00
2023-05-13T03:45:43.979Z,15.90
2023-05-13T03:46:44.018Z,17.30
2023-05-13T03:47:43.989Z,16.00
2023-05-13T03:48:43.994Z,17.50
2023-05-13T03:49:43.967Z,17.10
2023-05-13T03:50:43.963Z,16.10
2023-05-13T03:51:43.968Z,16.30
2023-05-13T03:52:45.543Z,15.90
2023-05-13T03:53:43.957Z,16.10
2023-05-13T03:54:43.988Z,16.30
2023-05-13T03:55:43.952Z,15.90
2023-05-13T03:56:43.949Z,14.50
2023-05-13T03:57:43.981Z,15.50
2023-05-13T03:58:43.952Z,15.80
2023-05-13T03:59:43.948Z,15.50
2023-05-13T04:00:43.944Z,15.10
2023-05-13T04:01:44.511Z,15.30
2023-05-13T04:02:44.111Z,14.90
2023-05-13T04:03:43.942Z,14.30
2023-05-13T04:04:43.951Z,14.80
2023-05-13T04:05:43.944Z,14.60
2023-05-13T04:06:43.936Z,15.10
2023-05-13T04:07:43.932Z,14.80
2023-05-13T04:08:43.925Z,15.10
2023-05-13T04:09:43.933Z,14.90
2023-05-13T04:10:43.948Z,14.10
2023-05-13T04:11:43.928Z,14.10
2023-05-13T04:12:43.933Z,13.40
2023-05-13T04:13:43.917Z,13.40
2023-05-13T04:14:43.917Z,13.90
2023-05-13T04:15:43.936Z,13.80
2023-05-13T04:16:43.957Z,15.00
2023-05-13T04:17:43.974Z,16.60
2023-05-13T04:18:44.015Z,16.10
2023-05-13T04:19:43.908Z,16.30
2023-05-13T04:20:43.906Z,14.70
2023-05-13T04:21:43.901Z,15.20
2023-05-13T04:22:43.904Z,14.90
2023-05-13T04:23:43.895Z,14.70
2023-05-13T04:24:43.893Z,14.70
2023-05-13T04:25:43.890Z,13.90
2023-05-13T04:26:43.904Z,14.60
2023-05-13T04:27:44.069Z,13.40
2023-05-13T04:28:43.879Z,15.00
2023-05-13T04:29:43.946Z,14.30
2023-05-13T04:30:43.875Z,14.70
2023-05-13T04:31:43.893Z,14.70
2023-05-13T04:32:43.917Z,15.50
2023-05-13T04:33:43.872Z,14.60
2023-05-13T04:34:43.866Z,14.70
2023-05-13T04:35:43.864Z,14.80
2023-05-13T04:36:43.862Z,15.30
2023-05-13T04:37:43.866Z,14.30
2023-05-13T04:38:43.870Z,15.70
2023-05-13T04:39:43.859Z,14.30
2023-05-13T04:40:43.852Z,14.80
2023-05-13T04:41:43.848Z,15.30
2023-05-13T04:42:43.867Z,16.50
2023-05-13T04:43:43.848Z,16.50
2023-05-13T04:44:43.869Z,16.30
2023-05-13T04:45:43.843Z,15.20
2023-05-13T04:46:43.952Z,15.40
2023-05-13T04:47:43.865Z,15.80
2023-05-13T04:48:43.835Z,15.80
2023-05-13T04:49:43.831Z,14.80
2023-05-13T04:50:43.833Z,15.80
2023-05-13T04:51:43.828Z,15.50
2023-05-13T04:52:43.824Z,15.90
2023-05-13T04:53:43.823Z,17.20
2023-05-13T04:54:43.820Z,16.50
2023-05-13T04:55:43.818Z,15.20
2023-05-13T04:56:43.816Z,14.70
2023-05-13T04:57:43.816Z,16.80
2023-05-13T04:58:43.834Z,16.30
2023-05-13T04:59:43.839Z,16.30
2023-05-13T05:00:43.834Z,16.40
2023-05-13T05:01:43.846Z,15.60
2023-05-13T05:02:43.850Z,15.10
2023-05-13T05:03:43.849Z,15.00
2023-05-13T05:04:43.802Z,14.70
2023-05-13T05:05:43.801Z,14.40
2023-05-13T05:06:43.802Z,14.50
2023-05-13T05:07:44.840Z,15.10
2023-05-13T05:08:43.805Z,14.70
2023-05-13T05:09:43.792Z,14.30
2023-05-13T05:10:43.786Z,15.00
2023-05-13T05:11:43.798Z,14.30
2023-05-13T05:12:43.803Z,14.50
2023-05-13T05:13:43.785Z,14.30
2023-05-13T05:14:43.798Z,15.30
2023-05-13T05:15:43.813Z,15.20
2023-05-13T05:16:43.782Z,16.50
2023-05-13T05:17:43.904Z,15.70
2023-05-13T05:18:43.883Z,15.80
2023-05-13T05:19:43.771Z,16.30
2023-05-13T05:20:43.764Z,16.00
2023-05-13T05:21:43.781Z,16.20
2023-05-13T05:22:43.764Z,16.70
2023-05-13T05:23:43.759Z,17.90
2023-05-13T05:24:43.761Z,19.40
2023-05-13T05:25:43.769Z,19.20
2023-05-13T05:26:43.757Z,19.40
2023-05-13T05:27:43.749Z,18.30
2023-05-13T05:28:43.901Z,18.20
2023-05-13T05:29:43.753Z,18.70
2023-05-13T05:30:43.766Z,19.60
2023-05-13T05:31:43.789Z,19.20
2023-05-13T05:32:43.806Z,18.30
2023-05-13T05:33:43.734Z,18.70
2023-05-13T05:34:43.739Z,18.50
2023-05-13T05:35:43.734Z,18.60
2023-05-13T05:36:43.748Z,17.70
2023-05-13T05:37:43.733Z,18.00
2023-05-13T05:38:43.728Z,17.90
2023-05-13T05:39:43.725Z,19.00
2023-05-13T05:40:43.724Z,17.70
2023-05-13T05:41:43.724Z,18.60
2023-05-13T05:42:43.794Z,18.20
2023-05-13T05:43:43.721Z,18.50
2023-05-13T05:44:43.718Z,17.40
2023-05-13T05:45:43.817Z,17.20
2023-05-13T05:46:43.722Z,16.50
2023-05-13T05:47:43.735Z,16.90
2023-05-13T05:48:43.707Z,17.90
2023-05-13T05:49:43.715Z,17.30
2023-05-13T05:50:43.710Z,16.50
2023-05-13T05:51:43.698Z,16.90
2023-05-13T05:52:43.698Z,16.70
2023-05-13T05:53:43.693Z,16.80
2023-05-13T05:54:43.692Z,17.30
2023-05-13T05:55:43.698Z,16.50
2023-05-13T05:56:43.689Z,16.70
2023-05-13T05:57:43.686Z,17.30
2023-05-13T05:58:43.690Z,16.60
2023-05-13T05:59:43.696Z,18.20
2023-05-13T06:00:43.681Z,17.60
2023-05-13T06:01:43.677Z,20.30
2023-05-13T06:02:43.772Z,18.60
2023-05-13T06:03:43.796Z,17.20
2023-05-13T06:04:43.835Z,17.00
2023-05-13T06:05:43.677Z,16.20
2023-05-13T06:06:43.703Z,15.10
2023-05-13T06:07:43.673Z,15.50
2023-05-13T06:08:43.670Z,14.40
2023-05-13T06:09:43.661Z,14.90
2023-05-13T06:10:45.136Z,14.20
2023-05-13T06:11:43.661Z,12.50
2023-05-13T06:12:43.661Z,13.70
2023-05-13T06:13:43.661Z,14.30
2023-05-13T06:14:43.653Z,13.90
2023-05-13T06:15:43.696Z,14.90
2023-05-13T06:16:43.661Z,14.60
2023-05-13T06:17:43.695Z,13.40
2023-05-13T06:18:43.697Z,14.20
2023-05-13T06:19:43.646Z,14.70
2023-05-13T06:20:43.643Z,13.60
2023-05-13T06:21:43.643Z,13.70
2023-05-13T06:22:43.642Z,12.60
2023-05-13T06:23:43.639Z,13.10
2023-05-13T06:24:43.640Z,13.10
2023-05-13T06:25:43.668Z,12.80
2023-05-13T06:26:43.632Z,12.50
2023-05-13T06:27:43.626Z,13.10
2023-05-13T06:28:44.132Z,13.20
2023-05-13T06:29:43.628Z,13.60
2023-05-13T06:30:43.632Z,13.00
2023-05-13T06:31:43.795Z,13.30
2023-05-13T06:32:53.506Z,14.10
2023-05-13T06:33:43.620Z,13.70
2023-05-13T06:34:43.639Z,13.90
2023-05-13T06:35:43.620Z,14.10
2023-05-13T06:36:43.613Z,13.10
2023-05-13T06:37:43.614Z,14.70
2023-05-13T06:38:43.624Z,12.60
2023-05-13T06:39:43.612Z,13.00
2023-05-13T06:40:43.605Z,12.80
2023-05-13T06:41:43.620Z,12.90
2023-05-13T06:42:43.610Z,12.40
2023-05-13T06:43:43.600Z,12.50
2023-05-13T06:44:43.603Z,14.00
2023-05-13T06:45:43.596Z,13.80
2023-05-13T06:46:43.668Z,13.60
2023-05-13T06:47:43.632Z,13.50
2023-05-13T06:48:43.624Z,12.40
2023-05-13T06:49:43.594Z,12.80
2023-05-13T06:50:43.615Z,12.70
2023-05-13T06:51:43.593Z,12.20
2023-05-13T06:52:43.593Z,11.60
2023-05-13T06:53:43.580Z,12.30
2023-05-13T06:54:43.590Z,10.50
2023-05-13T06:55:43.580Z,11.10
2023-05-13T06:56:43.584Z,11.10
2023-05-13T06:57:43.815Z,10.80
2023-05-13T06:58:43.587Z,11.00
2023-05-13T06:59:43.598Z,11.00
2023-05-13T07:00:43.615Z,10.80
2023-05-13T07:01:43.589Z,10.70
2023-05-13T07:02:43.623Z,10.30
2023-05-13T07:03:43.637Z,10.90
2023-05-13T07:04:43.567Z,11.00
2023-05-13T07:05:43.570Z,10.50
2023-05-13T07:06:43.582Z,9.80
2023-05-13T07:07:43.558Z,10.40
2023-05-13T07:08:43.562Z,10.50
2023-05-13T07:09:43.561Z,10.80
2023-05-13T07:10:43.565Z,10.40
2023-05-13T07:11:43.560Z,10.50
2023-05-13T07:12:43.552Z,10.40
2023-05-13T07:13:43.549Z,10.80
2023-05-13T07:14:43.553Z,10.40
2023-05-13T07:15:43.549Z,9.70
2023-05-13T07:16:45.724Z,10.60
2023-05-13T07:17:43.580Z,9.60
2023-05-13T07:18:43.608Z,10.10
2023-05-13T07:19:43.543Z,10.10
2023-05-13T07:20:43.536Z,10.10
2023-05-13T07:21:43.551Z,9.70
2023-05-13T07:22:43.554Z,9.60
2023-05-13T07:23:44.559Z,10.30
2023-05-13T07:24:43.532Z,9.60
2023-05-13T07:25:43.530Z,9.90
2023-05-13T07:26:43.526Z,9.70
2023-05-13T07:27:43.527Z,10.10
2023-05-13T07:28:43.534Z,9.70
2023-05-13T07:29:43.528Z,9.40
2023-05-13T07:30:43.551Z,9.80
2023-05-13T07:31:43.525Z,9.90
2023-05-13T07:32:43.582Z,9.70
2023-05-13T07:33:43.725Z,9.90
2023-05-13T07:34:43.519Z,10.20
2023-05-13T07:35:43.517Z,10.40
2023-05-13T07:36:43.514Z,10.90
2023-05-13T07:37:43.515Z,11.50
2023-05-13T07:38:43.530Z,11.10
2023-05-13T07:39:43.507Z,11.00
2023-05-13T07:40:43.509Z,12.00
2023-05-13T07:41:43.517Z,10.90
2023-05-13T07:42:43.511Z,11.40
2023-05-13T07:43:43.505Z,10.60
2023-05-13T07:44:43.506Z,10.50
2023-05-13T07:45:43.507Z,11.10
2023-05-13T07:46:43.582Z,10.70
2023-05-13T07:47:44.502Z,9.60
2023-05-13T07:48:43.504Z,9.20
2023-05-13T07:49:43.503Z,9.10
2023-05-13T07:50:43.500Z,9.30
2023-05-13T07:51:43.493Z,9.10
2023-05-13T07:52:43.490Z,8.50
2023-05-13T07:53:43.490Z,8.00
2023-05-13T07:54:43.507Z,8.40
2023-05-13T07:55:43.490Z,8.80
2023-05-13T07:56:43.488Z,8.60
2023-05-13T07:57:43.487Z,8.40
2023-05-13T07:58:43.495Z,8.00
2023-05-13T07:59:44.753Z,8.50
2023-05-13T08:00:43.481Z,8.60
2023-05-13T08:01:43.485Z,8.80
2023-05-13T08:02:43.575Z,8.80
2023-05-13T08:03:43.681Z,8.60
2023-05-13T08:04:43.526Z,9.40
2023-05-13T08:05:43.478Z,8.90
2023-05-13T08:06:43.478Z,8.80
2023-05-13T08:07:43.469Z,9.30
2023-05-13T08:08:43.468Z,8.80
2023-05-13T08:09:43.470Z,10.80
2023-05-13T08:10:43.519Z,8.90
2023-05-13T08:11:43.471Z,9.10
2023-05-13T08:12:43.494Z,9.20
2023-05-13T08:13:43.465Z,9.00
2023-05-13T08:14:43.470Z,8.90
2023-05-13T08:15:43.456Z,9.30
2023-05-13T08:16:43.484Z,8.60
2023-05-13T08:17:43.484Z,9.00
2023-05-13T08:18:45.688Z,9.10
2023-05-13T08:19:43.450Z,9.00
2023-05-13T08:20:43.453Z,9.10
2023-05-13T08:21:43.445Z,8.10
2023-05-13T08:22:43.446Z,8.80
2023-05-13T08:23:45.947Z,8.30
2023-05-13T08:24:43.447Z,8.00
2023-05-13T08:25:43.443Z,8.90
2023-05-13T08:26:43.458Z,8.70
2023-05-13T08:27:43.435Z,8.60
2023-05-13T08:28:43.443Z,8.40
2023-05-13T08:29:43.435Z,8.50
2023-05-13T08:30:43.437Z,7.60
2023-05-13T08:31:43.470Z,7.90
2023-05-13T08:32:43.449Z,8.00
2023-05-13T08:33:43.429Z,7.60
2023-05-13T08:34:43.628Z,8.10
2023-05-13T08:35:44.766Z,8.00
2023-05-13T08:36:43.435Z,7.90
2023-05-13T08:37:43.441Z,8.40
2023-05-13T08:38:43.427Z,8.00
2023-05-13T08:39:43.452Z,8.50
2023-05-13T08:40:43.426Z,8.60
2023-05-13T08:41:43.421Z,8.40
2023-05-13T08:42:43.438Z,8.70
2023-05-13T08:43:43.419Z,9.30
2023-05-13T08:44:43.414Z,8.70
2023-05-13T08:45:43.442Z,8.10
2023-05-13T08:46:43.418Z,8.40
2023-05-13T08:47:43.448Z,8.20
2023-05-13T08:48:43.421Z,8.60
2023-05-13T08:49:43.431Z,8.30
2023-05-13T08:50:43.413Z,8.70
2023-05-13T08:51:43.416Z,8.30
2023-05-13T08:52:43.417Z,9.20
2023-05-13T08:53:43.414Z,8.20
2023-05-13T08:54:43.411Z,8.20
2023-05-13T08:55:43.414Z,8.30
2023-05-13T08:56:43.407Z,8.60
2023-05-13T08:57:43.405Z,8.10
2023-05-13T08:58:43.421Z,8.40
2023-05-13T08:59:43.413Z,8.30
2023-05-13T09:00:43.403Z,8.10
2023-05-13T09:01:43.456Z,8.00
2023-05-13T09:02:43.441Z,8.30
2023-05-13T09:03:43.403Z,8.00
2023-05-13T09:04:43.444Z,7.90
2023-05-13T09:05:43.437Z,8.20
2023-05-13T09:06:43.396Z,8.10
2023-05-13T09:07:43.407Z,8.00
2023-05-13T09:08:43.401Z,7.90
2023-05-13T09:09:43.411Z,8.20
2023-05-13T09:10:43.396Z,7.60
2023-05-13T09:11:44.807Z,8.70
2023-05-13T09:12:43.391Z,8.30
2023-05-13T09:13:43.398Z,7.90
2023-05-13T09:14:43.412Z,8.10
2023-05-13T09:15:43.415Z,7.70
2023-05-13T09:16:43.388Z,7.60
2023-05-13T09:17:43.431Z,7.50
2023-05-13T09:18:46.102Z,8.30
2023-05-13T09:19:43.494Z,7.70
2023-05-13T09:20:43.384Z,7.80
2023-05-13T09:21:43.384Z,7.70
2023-05-13T09:22:43.382Z,7.20
2023-05-13T09:23:43.384Z,7.60
2023-05-13T09:24:43.379Z,7.00
2023-05-13T09:25:43.381Z,7.20
2023-05-13T09:26:43.375Z,7.80
2023-05-13T09:27:43.378Z,7.60
2023-05-13T09:28:43.375Z,7.70
2023-05-13T09:29:43.378Z,8.10
2023-05-13T09:30:46.346Z,7.60
2023-05-13T09:31:43.494Z,7.90
2023-05-13T09:32:43.421Z,8.00
2023-05-13T09:33:43.369Z,8.00
2023-05-13T09:34:43.770Z,7.70
2023-05-13T09:35:43.374Z,9.00
2023-05-13T09:36:43.368Z,8.10
2023-05-13T09:37:43.368Z,7.70
2023-05-13T09:38:43.364Z,7.30
2023-05-13T09:39:43.366Z,7.50
2023-05-13T09:40:43.368Z,8.10
2023-05-13T09:41:43.366Z,7.10
2023-05-13T09:42:43.361Z,6.90
2023-05-13T09:43:43.364Z,6.80
2023-05-13T09:44:43.367Z,6.40
2023-05-13T09:45:43.361Z,6.00
2023-05-13T09:46:43.498Z,7.00
2023-05-13T09:47:43.408Z,7.90
2023-05-13T09:48:43.354Z,7.00
2023-05-13T09:49:43.355Z,6.80
2023-05-13T09:50:43.352Z,6.60
2023-05-13T09:51:43.359Z,6.60
2023-05-13T09:52:43.362Z,6.40
2023-05-13T09:53:43.356Z,6.70
2023-05-13T09:54:43.350Z,6.80
2023-05-13T09:55:43.354Z,7.80
2023-05-13T09:56:43.352Z,6.90
2023-05-13T09:57:43.353Z,7.40
2023-05-13T09:58:43.360Z,6.80
2023-05-13T09:59:43.357Z,8.20
2023-05-13T10:00:43.858Z,6.20
2023-05-13T10:01:43.371Z,6.50
2023-05-13T10:02:43.427Z,6.80
2023-05-13T10:03:43.393Z,6.40
2023-05-13T10:04:43.343Z,6.90
2023-05-13T10:05:43.352Z,7.80
2023-05-13T10:06:43.341Z,6.90
2023-05-13T10:07:43.343Z,7.00
2023-05-13T10:08:43.351Z,7.10
2023-05-13T10:09:43.339Z,6.80
2023-05-13T10:10:43.459Z,6.90
2023-05-13T10:11:43.340Z,6.40
2023-05-13T10:12:43.336Z,5.90
2023-05-13T10:13:43.340Z,7.20
2023-05-13T10:14:43.336Z,6.10
2023-05-13T10:15:43.336Z,5.80
2023-05-13T10:16:43.430Z,7.80
2023-05-13T10:17:43.376Z,6.10
2023-05-13T10:18:43.412Z,5.80
2023-05-13T10:19:43.340Z,5.40
2023-05-13T10:20:43.332Z,5.10
2023-05-13T10:21:43.331Z,5.80
2023-05-13T10:22:43.328Z,5.70
2023-05-13T10:23:46.334Z,5.60
2023-05-13T10:24:43.330Z,6.00
2023-05-13T10:25:43.336Z,5.90
2023-05-13T10:26:43.325Z,6.10
2023-05-13T10:27:43.327Z,5.60
2023-05-13T10:28:43.324Z,6.10
2023-05-13T10:29:43.325Z,5.20
2023-05-13T10:30:43.321Z,6.10
2023-05-13T10:31:43.368Z,8.20
2023-05-13T10:32:43.330Z,6.20
2023-05-13T10:33:43.334Z,7.00
2023-05-13T10:34:43.747Z,5.40
2023-05-13T10:35:43.400Z,5.70
2023-05-13T10:36:43.318Z,6.50
2023-05-13T10:37:43.340Z,6.80
2023-05-13T10:38:43.313Z,6.00
2023-05-13T10:39:43.329Z,6.50
2023-05-13T10:40:43.313Z,6.30
2023-05-13T10:41:43.316Z,5.80
2023-05-13T10:42:43.376Z,5.50
2023-05-13T10:43:43.314Z,5.40
2023-05-13T10:44:43.317Z,7.00
2023-05-13T10:45:43.319Z,7.80
2023-05-13T10:46:43.484Z,6.40
2023-05-13T10:47:43.437Z,5.30
2023-05-13T10:48:43.686Z,6.40
2023-05-13T10:49:43.310Z,5.60
2023-05-13T10:50:43.322Z,7.40
2023-05-13T10:51:43.307Z,5.50
2023-05-13T10:52:43.320Z,5.00
2023-05-13T10:53:43.303Z,5.90
2023-05-13T10:54:43.298Z,5.30
2023-05-13T10:55:43.306Z,5.70
2023-05-13T10:56:43.298Z,5.20
2023-05-13T10:57:43.302Z,5.40
2023-05-13T10:58:43.307Z,6.60
2023-05-13T10:59:43.313Z,6.00
2023-05-13T11:00:43.311Z,5.30
2023-05-13T11:01:43.745Z,5.30
2023-05-13T11:02:43.403Z,5.80
2023-05-13T11:03:43.433Z,6.40
2023-05-13T11:04:43.308Z,5.70
2023-05-13T11:05:43.332Z,5.50
2023-05-13T11:06:43.333Z,5.80
2023-05-13T11:07:43.307Z,7.10
2023-05-13T11:08:43.297Z,6.70
2023-05-13T11:09:43.296Z,5.70
2023-05-13T11:10:43.294Z,6.30
2023-05-13T11:11:43.302Z,5.10
2023-05-13T11:12:43.295Z,5.30
2023-05-13T11:13:43.296Z,5.10
2023-05-13T11:14:43.298Z,6.00
2023-05-13T11:15:43.351Z,5.90
2023-05-13T11:16:43.397Z,6.60
2023-05-13T11:17:43.319Z,5.30
2023-05-13T11:18:43.371Z,6.00
2023-05-13T11:19:43.289Z,5.40
2023-05-13T11:22:52.789Z,5.80
2023-05-13T11:23:27.027Z,5.50
2023-05-13T11:24:27.064Z,6.70
2023-05-13T11:25:27.047Z,8.00
2023-05-13T11:26:27.035Z,6.20
2023-05-13T11:29:10.775Z,6.60
2023-05-13T11:30:10.778Z,5.70
2023-05-13T11:31:10.805Z,5.30
2023-05-13T11:32:10.775Z,6.30
2023-05-13T11:33:10.816Z,5.40
2023-05-13T11:34:10.779Z,8.00
2023-05-13T11:35:10.780Z,6.10
2023-05-13T11:36:10.803Z,5.00
2023-05-13T11:37:10.798Z,6.00
2023-05-13T11:38:10.795Z,5.70
2023-05-13T11:39:10.768Z,5.60
2023-05-13T11:40:10.772Z,5.50
2023-05-13T11:41:10.771Z,5.40
2023-05-13T11:42:10.770Z,4.60
2023-05-13T11:43:10.779Z,5.00
2023-05-13T11:44:10.769Z,6.20
2023-05-13T11:45:10.770Z,5.10
2023-05-13T11:46:10.782Z,5.40
2023-05-13T11:47:10.768Z,5.00
2023-05-13T11:48:10.809Z,6.20
2023-05-13T11:49:10.767Z,5.00
2023-05-13T11:50:10.802Z,5.30
2023-05-13T11:51:10.764Z,6.30
2023-05-13T11:52:10.762Z,5.50
2023-05-13T11:53:10.765Z,6.10
2023-05-13T11:54:10.787Z,5.30
2023-05-13T11:55:10.769Z,5.30
2023-05-13T11:56:10.779Z,5.30
2023-05-13T11:57:10.765Z,5.70
2023-05-13T11:58:10.772Z,6.10
2023-05-13T11:59:10.765Z,5.30
2023-05-13T12:00:10.771Z,6.60
2023-05-13T12:01:10.768Z,6.00
2023-05-13T12:02:10.842Z,5.20
2023-05-13T12:03:10.791Z,5.30
2023-05-13T12:04:10.764Z,5.40
2023-05-13T12:05:10.794Z,6.00
2023-05-13T12:06:10.766Z,6.60
2023-05-13T12:07:10.767Z,4.70
2023-05-13T12:08:10.764Z,5.60
2023-05-13T12:09:10.843Z,5.90
2023-05-13T12:10:10.780Z,5.90
2023-05-13T12:11:10.762Z,6.30
2023-05-13T12:12:10.766Z,5.30
2023-05-13T12:13:10.773Z,5.80
2023-05-13T12:14:10.764Z,5.60
2023-05-13T12:15:10.784Z,5.40
2023-05-13T12:16:10.824Z,7.30
2023-05-13T12:17:10.764Z,5.00
2023-05-13T12:18:10.824Z,6.20
2023-05-13T12:19:10.892Z,5.70
2023-05-13T12:20:10.926Z,5.40
2023-05-13T12:21:10.762Z,6.30
2023-05-13T12:22:10.767Z,6.10
2023-05-13T12:23:11.019Z,6.00
2023-05-13T12:24:10.760Z,5.70
2023-05-13T12:25:10.759Z,6.80
2023-05-13T12:26:10.784Z,6.40
2023-05-13T12:27:11.616Z,5.70
2023-05-13T12:28:10.783Z,5.40
2023-05-13T12:29:10.765Z,5.70
2023-05-13T12:30:10.792Z,6.20
2023-05-13T12:31:10.791Z,5.70
2023-05-13T12:32:10.762Z,5.50
2023-05-13T12:33:10.797Z,6.70
2023-05-13T12:34:10.767Z,5.30
2023-05-13T12:35:10.756Z,5.50
2023-05-13T12:36:10.757Z,5.20
2023-05-13T12:37:10.835Z,6.10
2023-05-13T12:38:10.759Z,5.80
2023-05-13T12:39:10.761Z,4.30
2023-05-13T12:40:10.758Z,4.20
2023-05-13T12:41:10.757Z,4.00
2023-05-13T12:42:10.776Z,4.60
2023-05-13T12:43:10.754Z,4.00
2023-05-13T12:44:10.754Z,3.90
2023-05-13T12:45:10.754Z,4.00
2023-05-13T12:46:10.793Z,4.30
2023-05-13T12:47:10.814Z,4.20
2023-05-13T12:48:10.856Z,4.20
2023-05-13T12:49:10.752Z,4.10
2023-05-13T12:50:10.757Z,4.40
2023-05-13T12:51:10.758Z,4.70
2023-05-13T12:52:10.754Z,4.20
2023-05-13T12:53:10.760Z,4.10
2023-05-13T12:54:10.762Z,4.20
2023-05-13T12:55:10.756Z,4.50
2023-05-13T12:56:10.757Z,4.40
2023-05-13T12:57:10.751Z,4.20
2023-05-13T12:58:10.928Z,4.20
2023-05-13T12:59:10.755Z,4.40
2023-05-13T13:00:10.768Z,3.90
2023-05-13T13:01:10.796Z,4.50
2023-05-13T13:02:10.777Z,4.20
2023-05-13T13:03:10.809Z,4.20
2023-05-13T13:04:10.923Z,4.80
2023-05-13T13:05:10.759Z,4.00
2023-05-13T13:06:10.756Z,4.20
2023-05-13T13:07:10.759Z,4.10